createdAt,value
2022-12-20T00:00:24.509Z,20.5
2022-12-20T00:01:26.612Z,20.5
2022-12-20T00:02:29.617Z,20.5
2022-12-20T00:03:32.588Z,20.5
2022-12-20T00:04:35.126Z,20.5
2022-12-20T00:05:37.337Z,20.5
2022-12-20T00:06:39.856Z,20.5
2022-12-20T00:07:42.392Z,20.5
2022-12-20T00:08:44.905Z,20.5
2022-12-20T00:09:47.240Z,20.5
2022-12-20T00:10:49.484Z,20.6
2022-12-20T00:11:51.768Z,20.6
2022-12-20T00:12:54.250Z,20.6
2022-12-20T00:13:56.907Z,20.6
2022-12-20T00:14:59.431Z,20.6
2022-12-20T00:16:01.955Z,20.6
2022-12-20T00:17:04.189Z,20.6
2022-12-20T00:18:06.756Z,20.6
2022-12-20T00:19:09.593Z,20.6
2022-12-20T00:20:11.563Z,20.6
2022-12-20T00:21:13.803Z,20.7
2022-12-20T00:22:16.351Z,20.6
2022-12-20T00:23:18.306Z,20.7
2022-12-20T00:25:25.825Z,20.7
2022-12-20T00:26:28.412Z,20.7
2022-12-20T00:27:30.970Z,20.7
2022-12-20T00:28:33.489Z,20.7
2022-12-20T00:29:36.051Z,20.7
2022-12-20T00:30:38.005Z,20.7
2022-12-20T00:31:40.130Z,20.7
2022-12-20T00:32:42.527Z,20.7
2022-12-20T00:33:45.068Z,20.7
2022-12-20T00:34:47.628Z,20.7
2022-12-20T00:35:50.163Z,20.7
2022-12-20T00:36:52.684Z,20.7
2022-12-20T00:37:55.179Z,20.7
2022-12-20T00:38:57.391Z,20.7
2022-12-20T00:39:59.924Z,20.8
2022-12-20T00:41:02.300Z,20.8
2022-12-20T00:42:05.205Z,20.8
2022-12-20T00:43:07.906Z,20.8
2022-12-20T00:44:10.418Z,20.8
2022-12-20T00:45:12.970Z,20.8
2022-12-20T00:46:15.034Z,20.8
2022-12-20T00:47:18.119Z,20.8
2022-12-20T00:48:20.951Z,20.8
2022-12-20T00:49:23.487Z,20.8
2022-12-20T00:50:25.997Z,20.8
2022-12-20T00:51:28.487Z,20.8
2022-12-20T00:52:31.006Z,20.8
2022-12-20T00:53:33.239Z,20.8
2022-12-20T00:54:35.465Z,20.8
2022-12-20T00:55:37.393Z,20.8
2022-12-20T00:56:39.940Z,20.8
2022-12-20T00:57:42.457Z,20.8
2022-12-20T00:58:44.447Z,20.8
2022-12-20T00:59:46.400Z,20.8
2022-12-20T01:01:54.406Z,20.8
2022-12-20T01:02:58.124Z,20.9
2022-12-20T01:04:01.053Z,20.9
2022-12-20T01:05:03.316Z,20.9
2022-12-20T01:06:05.836Z,20.9
2022-12-20T01:07:08.366Z,20.9
2022-12-20T01:08:10.857Z,20.9
2022-12-20T01:09:13.061Z,20.9
2022-12-20T01:10:15.587Z,20.9
2022-12-20T01:11:18.140Z,20.9
2022-12-20T01:12:20.712Z,20.9
2022-12-20T01:13:23.233Z,20.9
2022-12-20T01:14:25.803Z,20.9
2022-12-20T01:15:28.316Z,20.9
2022-12-20T01:16:31.295Z,20.9
2022-12-20T01:17:34.038Z,20.9
2022-12-20T01:18:36.284Z,20.9
2022-12-20T01:19:38.769Z,20.9
2022-12-20T01:20:41.288Z,20.9
2022-12-20T01:21:43.566Z,20.9
2022-12-20T01:24:05.467Z,20.9
2022-12-20T01:25:07.710Z,20.9
2022-12-20T01:26:10.295Z,20.9
2022-12-20T01:27:12.889Z,20.9
2022-12-20T01:28:14.859Z,20.9
2022-12-20T01:29:17.451Z,20.9
2022-12-20T01:30:20.079Z,21
2022-12-20T01:31:22.847Z,21
2022-12-20T01:32:25.639Z,21
2022-12-20T01:33:27.883Z,21
2022-12-20T01:34:30.170Z,21
2022-12-20T01:35:32.695Z,21
2022-12-20T01:36:34.678Z,21
2022-12-20T01:37:37.197Z,21
2022-12-20T01:38:39.731Z,20.9
2022-12-20T01:39:41.963Z,20.9
2022-12-20T01:40:44.499Z,20.9
2022-12-20T01:41:47.067Z,20.9
2022-12-20T01:42:49.282Z,20.9
2022-12-20T01:43:51.816Z,20.9
2022-12-20T01:44:54.044Z,20.9
2022-12-20T01:45:56.539Z,20.9
2022-12-20T01:46:59.329Z,20.9
2022-12-20T01:48:01.663Z,20.9
2022-12-20T01:49:04.210Z,20.9
2022-12-20T01:50:06.727Z,20.9
2022-12-20T01:51:08.676Z,21
2022-12-20T01:52:11.204Z,21
2022-12-20T01:53:13.787Z,21
2022-12-20T01:54:16.359Z,21
2022-12-20T01:55:18.892Z,21
2022-12-20T01:56:21.422Z,21
2022-12-20T01:57:23.966Z,21
2022-12-20T01:58:26.470Z,21
2022-12-20T01:59:28.721Z,21
2022-12-20T02:00:31.228Z,21
2022-12-20T02:01:34.275Z,21
2022-12-20T02:02:37.918Z,21
2022-12-20T02:03:41.377Z,21
2022-12-20T02:04:44.182Z,21
2022-12-20T02:05:46.671Z,21
2022-12-20T02:06:48.914Z,21
2022-12-20T02:07:51.147Z,20.9
2022-12-20T02:08:53.391Z,21
2022-12-20T02:09:55.889Z,21
2022-12-20T02:10:58.407Z,21
2022-12-20T02:12:00.120Z,21
2022-12-20T02:13:02.666Z,21
2022-12-20T02:14:05.163Z,21
2022-12-20T02:15:07.721Z,21
2022-12-20T02:16:10.073Z,21
2022-12-20T02:17:13.227Z,21
2022-12-20T02:18:15.467Z,21
2022-12-20T02:19:18.020Z,21
2022-12-20T02:20:20.524Z,21
2022-12-20T02:21:23.050Z,21
2022-12-20T02:22:25.595Z,21
2022-12-20T02:23:28.117Z,21
2022-12-20T02:24:30.632Z,21
2022-12-20T02:25:33.153Z,21
2022-12-20T02:26:35.394Z,21
2022-12-20T02:27:39.070Z,21
2022-12-20T02:28:41.346Z,21
2022-12-20T02:29:45.153Z,21
2022-12-20T02:30:47.706Z,21
2022-12-20T02:31:50.209Z,21
2022-12-20T02:32:52.984Z,21
2022-12-20T02:33:55.492Z,21
2022-12-20T02:34:58.445Z,21
2022-12-20T02:36:00.944Z,21
2022-12-20T02:37:03.456Z,21
2022-12-20T02:38:06.030Z,21
2022-12-20T02:39:08.545Z,21
2022-12-20T02:40:10.847Z,21
2022-12-20T02:41:13.070Z,21
2022-12-20T02:42:15.607Z,21
2022-12-20T02:43:18.120Z,21
2022-12-20T02:44:20.606Z,21
2022-12-20T02:45:23.124Z,21.1
2022-12-20T02:46:25.864Z,21.1
2022-12-20T02:47:28.577Z,21.1
2022-12-20T02:48:31.177Z,21.1
2022-12-20T02:49:33.720Z,21.1
2022-12-20T02:50:36.422Z,21.1
2022-12-20T02:51:38.341Z,21.1
2022-12-20T02:53:45.571Z,21
2022-12-20T02:54:48.118Z,21
2022-12-20T02:55:50.321Z,21
2022-12-20T02:56:52.852Z,21
2022-12-20T02:59:00.097Z,21
2022-12-20T03:00:02.640Z,21
2022-12-20T03:01:05.468Z,21
2022-12-20T03:02:08.996Z,21
2022-12-20T03:03:12.560Z,21
2022-12-20T03:04:15.781Z,21
2022-12-20T03:05:18.310Z,21
2022-12-20T03:06:20.630Z,21
2022-12-20T03:07:22.864Z,21.1
2022-12-20T03:08:25.137Z,21.1
2022-12-20T03:09:27.412Z,21.1
2022-12-20T03:10:29.689Z,21.1
2022-12-20T03:11:32.227Z,21.1
2022-12-20T03:12:34.450Z,21.1
2022-12-20T03:13:36.744Z,21.1
2022-12-20T03:14:38.968Z,21.1
2022-12-20T03:15:41.499Z,21.1
2022-12-20T03:16:44.197Z,21.1
2022-12-20T03:17:46.968Z,21.1
2022-12-20T03:18:49.485Z,21.1
2022-12-20T03:19:51.183Z,21.1
2022-12-20T03:20:53.777Z,21
2022-12-20T03:21:56.357Z,21
2022-12-20T03:22:58.868Z,21
2022-12-20T03:24:01.090Z,21
2022-12-20T03:25:03.313Z,21
2022-12-20T03:26:05.586Z,21
2022-12-20T03:27:07.583Z,21
2022-12-20T03:28:09.810Z,21.1
2022-12-20T03:29:12.328Z,21.1
2022-12-20T03:30:14.895Z,21.1
2022-12-20T03:31:17.372Z,21.1
2022-12-20T03:32:19.998Z,21.1
2022-12-20T03:33:22.267Z,21.1
2022-12-20T03:34:24.807Z,21.1
2022-12-20T03:35:27.346Z,21.1
2022-12-20T03:36:29.825Z,21.1
2022-12-20T03:37:32.090Z,21.1
2022-12-20T03:38:34.078Z,21.1
2022-12-20T03:39:36.617Z,21.1
2022-12-20T03:40:39.131Z,21.1
2022-12-20T03:41:41.394Z,21.1
2022-12-20T03:42:44.883Z,21.1
2022-12-20T03:43:47.406Z,21.1
2022-12-20T03:44:50.133Z,21.1
2022-12-20T03:45:53.138Z,21.1
2022-12-20T03:46:55.801Z,21.1
2022-12-20T03:47:58.113Z,21.1
2022-12-20T03:49:00.665Z,21.1
2022-12-20T03:50:03.177Z,21.1
2022-12-20T03:51:05.749Z,21.1
2022-12-20T03:52:08.254Z,21.1
2022-12-20T03:53:10.829Z,21.1
2022-12-20T03:54:12.822Z,21.1
2022-12-20T03:55:15.321Z,21.1
2022-12-20T03:56:17.863Z,21.1
2022-12-20T03:57:20.384Z,21.1
2022-12-20T03:58:22.908Z,21.1
2022-12-20T03:59:25.429Z,21.1
2022-12-20T04:00:27.923Z,21.2
2022-12-20T04:01:31.010Z,21.2
2022-12-20T04:02:34.695Z,21.2
2022-12-20T04:03:38.389Z,21.2
2022-12-20T04:04:41.062Z,21.1
2022-12-20T04:05:43.586Z,21.1
2022-12-20T04:06:46.172Z,21.1
2022-12-20T04:07:48.696Z,21.1
2022-12-20T04:08:51.255Z,21.1
2022-12-20T04:09:53.797Z,21.1
2022-12-20T04:10:56.030Z,21.1
2022-12-20T04:11:57.987Z,21.1
2022-12-20T04:13:00.527Z,21.1
2022-12-20T04:14:03.036Z,21
2022-12-20T04:15:05.550Z,21
2022-12-20T04:16:07.941Z,21
2022-12-20T04:17:10.640Z,21
2022-12-20T04:18:13.207Z,21
2022-12-20T04:19:15.185Z,21
2022-12-20T04:20:17.455Z,21
2022-12-20T04:21:19.956Z,21
2022-12-20T04:22:22.219Z,21
2022-12-20T04:23:24.738Z,21
2022-12-20T04:24:27.308Z,21
2022-12-20T04:25:29.859Z,21
2022-12-20T04:26:32.411Z,21
2022-12-20T04:27:34.370Z,20.9
2022-12-20T04:28:36.895Z,20.9
2022-12-20T04:29:39.443Z,20.9
2022-12-20T04:30:41.677Z,20.9
2022-12-20T04:31:44.473Z,20.9
2022-12-20T04:32:46.624Z,20.9
2022-12-20T04:33:49.136Z,20.9
2022-12-20T04:34:51.665Z,20.9
2022-12-20T04:35:54.216Z,20.9
2022-12-20T04:36:56.725Z,20.9
2022-12-20T04:37:59.027Z,20.9
2022-12-20T04:39:01.694Z,20.9
2022-12-20T04:40:04.439Z,20.9
2022-12-20T04:41:06.444Z,20.9
2022-12-20T04:42:08.956Z,20.9
2022-12-20T04:43:11.472Z,20.9
2022-12-20T04:44:14.015Z,20.9
2022-12-20T04:45:16.592Z,20.9
2022-12-20T04:46:19.311Z,20.9
2022-12-20T04:47:21.456Z,20.9
2022-12-20T04:49:28.967Z,20.9
2022-12-20T04:50:31.238Z,20.9
2022-12-20T04:51:33.589Z,20.8
2022-12-20T04:52:35.881Z,20.8
2022-12-20T04:53:42.375Z,20.8
2022-12-20T04:54:44.873Z,20.8
2022-12-20T04:55:47.438Z,20.8
2022-12-20T04:56:49.946Z,20.9
2022-12-20T04:57:52.461Z,20.8
2022-12-20T04:58:54.424Z,20.8
2022-12-20T04:59:56.683Z,20.8
2022-12-20T05:00:59.193Z,20.8
2022-12-20T05:02:02.132Z,20.8
2022-12-20T05:03:05.739Z,20.8
2022-12-20T05:04:09.313Z,20.8
2022-12-20T05:05:11.969Z,20.8
2022-12-20T05:06:14.260Z,20.8
2022-12-20T05:07:16.827Z,20.8
2022-12-20T05:08:19.373Z,20.8
2022-12-20T05:09:21.944Z,20.8
2022-12-20T05:10:24.443Z,20.8
2022-12-20T05:11:26.994Z,20.8
2022-12-20T05:12:28.937Z,20.8
2022-12-20T05:13:31.486Z,20.8
2022-12-20T05:14:33.992Z,20.8
2022-12-20T05:15:37.614Z,20.8
2022-12-20T05:16:40.693Z,20.8
2022-12-20T05:17:44.340Z,20.8
2022-12-20T05:19:51.865Z,20.8
2022-12-20T05:20:54.128Z,20.8
2022-12-20T05:21:56.634Z,20.8
2022-12-20T05:22:59.201Z,20.8
2022-12-20T05:24:01.727Z,20.8
2022-12-20T05:25:04.325Z,20.8
2022-12-20T05:26:06.691Z,20.8
2022-12-20T05:27:09.339Z,20.8
2022-12-20T05:28:11.587Z,20.8
2022-12-20T05:29:14.090Z,20.8
2022-12-20T05:30:16.351Z,20.8
2022-12-20T05:31:18.751Z,20.8
2022-12-20T05:32:21.210Z,20.8
2022-12-20T05:34:29.234Z,20.8
2022-12-20T05:35:32.019Z,20.8
2022-12-20T05:36:34.813Z,20.8
2022-12-20T05:37:37.322Z,20.8
2022-12-20T05:38:39.289Z,20.8
2022-12-20T05:39:41.788Z,20.8
2022-12-20T05:40:45.333Z,20.8
2022-12-20T05:41:47.839Z,20.8
2022-12-20T05:42:50.432Z,20.8
2022-12-20T05:43:52.966Z,20.8
2022-12-20T05:44:55.238Z,20.8
2022-12-20T05:45:57.755Z,20.8
2022-12-20T05:47:00.372Z,20.8
2022-12-20T05:48:03.036Z,20.8
2022-12-20T05:49:05.302Z,20.8
2022-12-20T05:50:08.625Z,20.8
2022-12-20T05:51:13.544Z,20.8
2022-12-20T05:52:15.841Z,20.8
2022-12-20T05:53:18.404Z,20.8
2022-12-20T05:54:20.957Z,20.7
2022-12-20T05:55:23.507Z,20.8
2022-12-20T05:56:29.510Z,20.8
2022-12-20T05:57:32.038Z,20.8
2022-12-20T05:58:34.354Z,20.7
2022-12-20T05:59:36.652Z,20.7
2022-12-20T06:00:38.897Z,20.8
2022-12-20T06:01:41.911Z,20.7
2022-12-20T06:02:45.383Z,20.8
2022-12-20T06:03:48.964Z,20.7
2022-12-20T06:04:51.907Z,20.7
2022-12-20T06:05:53.866Z,20.7
2022-12-20T06:06:56.118Z,20.7
2022-12-20T06:07:58.388Z,20.7
2022-12-20T06:09:00.915Z,20.7
2022-12-20T06:10:03.506Z,20.7
2022-12-20T06:11:05.846Z,20.7
2022-12-20T06:12:08.398Z,20.7
2022-12-20T06:13:10.901Z,20.7
2022-12-20T06:14:13.477Z,20.7
2022-12-20T06:15:16.006Z,20.7
2022-12-20T06:16:18.421Z,20.7
2022-12-20T06:17:21.071Z,20.7
2022-12-20T06:18:23.339Z,20.7
2022-12-20T06:19:25.875Z,20.7
2022-12-20T06:20:28.415Z,20.7
2022-12-20T06:21:30.916Z,20.7
2022-12-20T06:22:33.451Z,20.7
2022-12-20T06:23:35.949Z,20.7
2022-12-20T06:25:43.468Z,20.7
2022-12-20T06:26:46.016Z,20.7
2022-12-20T06:27:48.305Z,20.7
2022-12-20T06:28:50.247Z,20.7
2022-12-20T06:29:52.857Z,20.7
2022-12-20T06:30:55.432Z,20.7
2022-12-20T06:31:57.994Z,20.7
2022-12-20T06:33:00.844Z,20.7
2022-12-20T06:34:02.787Z,20.7
2022-12-20T06:35:05.364Z,20.7
2022-12-20T06:36:07.640Z,20.7
2022-12-20T06:37:10.183Z,20.7
2022-12-20T06:38:12.438Z,20.7
2022-12-20T06:39:14.654Z,20.7
2022-12-20T06:40:16.945Z,20.7
2022-12-20T06:41:19.250Z,20.7
2022-12-20T06:42:21.475Z,20.7
2022-12-20T06:43:23.797Z,20.7
2022-12-20T06:44:26.348Z,20.7
2022-12-20T06:45:29.224Z,20.7
2022-12-20T06:46:36.449Z,20.7
2022-12-20T06:47:39.197Z,20.7
2022-12-20T06:48:41.453Z,20.7
2022-12-20T06:49:43.993Z,20.7
2022-12-20T06:51:51.521Z,20.7
2022-12-20T06:52:54.080Z,20.7
2022-12-20T06:53:56.315Z,20.7
2022-12-20T06:54:58.880Z,20.7
2022-12-20T06:56:01.413Z,20.7
2022-12-20T06:57:03.161Z,20.7
2022-12-20T06:58:05.141Z,20.7
2022-12-20T06:59:07.716Z,20.7
2022-12-20T07:00:10.043Z,20.7
2022-12-20T07:01:12.858Z,20.7
2022-12-20T07:02:16.699Z,20.7
2022-12-20T07:03:20.274Z,20.7
2022-12-20T07:04:22.802Z,20.6
2022-12-20T07:05:25.047Z,20.6
2022-12-20T07:06:27.580Z,20.6
2022-12-20T07:07:30.127Z,20.6
2022-12-20T07:08:32.416Z,20.6
2022-12-20T07:09:34.997Z,20.6
2022-12-20T07:10:37.685Z,20.6
2022-12-20T07:11:40.305Z,20.6
2022-12-20T07:13:47.531Z,20.6
2022-12-20T07:14:50.136Z,20.6
2022-12-20T07:15:52.420Z,20.6
2022-12-20T07:16:55.335Z,20.6
2022-12-20T07:17:57.887Z,20.6
2022-12-20T07:19:00.176Z,20.6
2022-12-20T07:21:07.725Z,20.6
2022-12-20T07:22:10.259Z,20.6
2022-12-20T07:23:12.503Z,20.6
2022-12-20T07:24:14.803Z,20.6
2022-12-20T07:25:17.355Z,20.6
2022-12-20T07:26:19.622Z,20.6
2022-12-20T07:27:22.163Z,20.6
2022-12-20T07:29:29.665Z,20.6
2022-12-20T07:30:32.968Z,20.6
2022-12-20T07:31:35.412Z,20.6
2022-12-20T07:32:38.749Z,20.6
2022-12-20T07:33:41.080Z,20.6
2022-12-20T07:34:44.248Z,20.6
2022-12-20T07:36:51.499Z,20.6
2022-12-20T07:37:53.825Z,20.6
2022-12-20T07:38:55.810Z,20.6
2022-12-20T07:39:58.383Z,20.6
2022-12-20T07:41:00.673Z,20.6
2022-12-20T07:42:03.625Z,20.6
2022-12-20T07:43:06.329Z,20.6
2022-12-20T07:44:08.998Z,20.6
2022-12-20T07:45:11.303Z,20.6
2022-12-20T07:46:14.118Z,20.6
2022-12-20T07:47:16.393Z,20.6
2022-12-20T07:49:23.797Z,20.6
2022-12-20T07:50:26.975Z,20.6
2022-12-20T07:51:30.690Z,20.6
2022-12-20T07:52:33.278Z,20.6
2022-12-20T07:53:36.916Z,20.6
2022-12-20T07:54:39.289Z,20.6
2022-12-20T07:55:41.517Z,20.6
2022-12-20T07:56:44.651Z,20.6
2022-12-20T07:57:47.411Z,20.6
2022-12-20T07:58:49.768Z,20.6
2022-12-20T07:59:52.097Z,20.6
2022-12-20T08:00:54.801Z,20.6
2022-12-20T08:03:03.039Z,20.6
2022-12-20T08:04:06.519Z,20.6
2022-12-20T08:05:09.333Z,20.6
2022-12-20T08:06:11.312Z,20.6
2022-12-20T08:07:13.346Z,20.6
2022-12-20T08:08:15.590Z,20.6
2022-12-20T08:09:17.849Z,20.6
2022-12-20T08:10:19.815Z,20.6
2022-12-20T08:11:22.102Z,20.6
2022-12-20T08:12:23.837Z,20.6
2022-12-20T08:13:27.470Z,20.6
2022-12-20T08:14:29.724Z,20.6
2022-12-20T08:15:31.699Z,20.6
2022-12-20T08:16:34.109Z,20.6
2022-12-20T08:17:36.475Z,20.6
2022-12-20T08:18:39.069Z,20.6
2022-12-20T08:19:41.624Z,20.6
2022-12-20T08:20:44.145Z,20.6
2022-12-20T08:21:46.714Z,20.6
2022-12-20T08:22:49.255Z,20.6
2022-12-20T08:23:51.519Z,20.6
2022-12-20T08:24:54.091Z,20.6
2022-12-20T08:25:56.632Z,20.6
2022-12-20T08:26:59.158Z,20.6
2022-12-20T08:28:01.087Z,20.6
2022-12-20T08:29:03.017Z,20.6
2022-12-20T08:30:05.684Z,20.6
2022-12-20T08:31:08.577Z,20.6
2022-12-20T08:32:11.110Z,20.6
2022-12-20T08:33:13.604Z,20.6
2022-12-20T08:34:16.195Z,20.6
2022-12-20T08:35:18.823Z,20.6
2022-12-20T08:36:21.418Z,20.6
2022-12-20T08:37:23.730Z,20.6
2022-12-20T08:38:26.018Z,20.6
2022-12-20T08:39:28.576Z,20.6
2022-12-20T08:40:31.157Z,20.6
2022-12-20T08:41:33.742Z,20.6
2022-12-20T08:42:35.750Z,20.6
2022-12-20T08:43:39.550Z,20.6
2022-12-20T08:44:41.944Z,20.6
2022-12-20T08:45:45.502Z,20.6
2022-12-20T08:46:48.299Z,20.6
2022-12-20T08:47:50.558Z,20.6
2022-12-20T08:48:53.125Z,20.6
2022-12-20T08:49:55.450Z,20.6
2022-12-20T08:50:58.359Z,20.6
2022-12-20T08:52:00.535Z,20.6
2022-12-20T08:53:02.789Z,20.6
2022-12-20T08:54:04.230Z,20.6
2022-12-20T08:55:06.645Z,20.6
2022-12-20T08:56:09.211Z,20.6
2022-12-20T08:57:11.776Z,20.6
2022-12-20T08:58:14.301Z,20.6
2022-12-20T08:59:16.865Z,20.6
2022-12-20T09:00:19.134Z,20.6
2022-12-20T09:01:21.846Z,20.6
2022-12-20T09:02:25.132Z,20.6
2022-12-20T09:03:28.498Z,20.6
2022-12-20T09:04:31.307Z,20.6
2022-12-20T09:05:33.882Z,20.6
2022-12-20T09:06:36.505Z,20.6
2022-12-20T09:07:38.530Z,20.6
2022-12-20T09:08:40.782Z,20.6
2022-12-20T09:09:43.104Z,20.6
2022-12-20T09:10:45.334Z,20.6
2022-12-20T09:11:47.626Z,20.6
2022-12-20T09:12:49.848Z,20.6
2022-12-20T09:13:52.450Z,20.6
2022-12-20T09:14:54.443Z,20.6
2022-12-20T09:15:56.870Z,20.6
2022-12-20T09:16:59.581Z,20.6
2022-12-20T09:18:02.148Z,20.6
2022-12-20T09:20:09.650Z,20.6
2022-12-20T09:21:12.037Z,20.6
2022-12-20T09:22:14.385Z,20.6
2022-12-20T09:23:16.933Z,20.6
2022-12-20T09:24:18.888Z,20.6
2022-12-20T09:25:21.457Z,20.6
2022-12-20T09:26:23.993Z,20.6
2022-12-20T09:27:26.544Z,20.6
2022-12-20T09:28:28.519Z,20.6
2022-12-20T09:30:35.806Z,20.6
2022-12-20T09:31:38.856Z,20.6
2022-12-20T09:32:41.049Z,20.6
2022-12-20T09:33:43.064Z,20.6
2022-12-20T09:35:00.237Z,20.6
2022-12-20T09:36:02.502Z,20.6
2022-12-20T09:37:05.103Z,20.6
2022-12-20T09:38:07.940Z,20.6
2022-12-20T09:39:10.259Z,20.6
2022-12-20T09:40:12.494Z,20.6
2022-12-20T09:42:19.710Z,20.6
2022-12-20T09:43:21.990Z,20.6
2022-12-20T09:44:24.523Z,20.6
2022-12-20T09:45:26.839Z,20.6
2022-12-20T09:46:30.121Z,20.6
2022-12-20T09:47:32.948Z,20.6
2022-12-20T09:48:35.291Z,20.6
2022-12-20T09:49:52.185Z,20.6
2022-12-20T09:50:54.214Z,20.6
2022-12-20T09:51:56.534Z,20.6
2022-12-20T09:52:59.172Z,20.6
2022-12-20T09:54:01.740Z,20.6
2022-12-20T09:55:03.755Z,20.6
2022-12-20T09:56:05.993Z,20.6
2022-12-20T09:57:08.532Z,20.6
2022-12-20T09:58:11.058Z,20.6
2022-12-20T09:59:13.325Z,20.6
2022-12-20T10:00:15.911Z,20.6
2022-12-20T10:03:29.153Z,20.6
2022-12-20T10:04:33.262Z,20.6
2022-12-20T10:06:41.481Z,20.6
2022-12-20T10:07:44.014Z,20.6
2022-12-20T10:08:46.637Z,20.6
2022-12-20T10:09:48.954Z,20.6
2022-12-20T10:10:51.200Z,20.6
2022-12-20T10:11:53.442Z,20.6
2022-12-20T10:12:55.404Z,20.6
2022-12-20T10:13:57.991Z,20.6
2022-12-20T10:15:00.263Z,20.6
2022-12-20T10:16:02.701Z,20.6
2022-12-20T10:17:05.218Z,20.6
2022-12-20T10:18:07.785Z,20.6
2022-12-20T10:19:09.740Z,20.6
2022-12-20T10:20:12.259Z,20.6
2022-12-20T10:21:14.233Z,20.6
2022-12-20T10:22:16.824Z,20.6
2022-12-20T10:23:19.332Z,20.6
2022-12-20T10:24:21.937Z,20.6
2022-12-20T10:25:24.540Z,20.6
2022-12-20T10:26:26.788Z,20.6
2022-12-20T10:27:29.332Z,20.6
2022-12-20T10:28:31.854Z,20.6
2022-12-20T10:29:33.836Z,20.6
2022-12-20T10:30:36.355Z,20.6
2022-12-20T10:31:39.088Z,20.6
2022-12-20T10:32:41.535Z,20.6
2022-12-20T10:33:45.960Z,20.6
2022-12-20T10:34:49.804Z,20.6
2022-12-20T10:35:52.041Z,20.6
2022-12-20T10:36:54.552Z,20.6
2022-12-20T10:39:02.093Z,20.6
2022-12-20T10:42:14.614Z,20.6
2022-12-20T10:43:17.204Z,20.6
2022-12-20T10:44:19.727Z,20.6
2022-12-20T10:45:22.249Z,20.6
2022-12-20T10:46:23.748Z,20.6
2022-12-20T10:47:26.176Z,20.6
2022-12-20T10:48:28.406Z,20.6
2022-12-20T10:49:30.363Z,20.6
2022-12-20T10:50:33.041Z,20.6
2022-12-20T10:51:35.561Z,20.6
2022-12-20T10:52:37.536Z,20.6
2022-12-20T10:53:39.537Z,20.6
2022-12-20T10:54:41.796Z,20.6
2022-12-20T10:55:44.353Z,20.6
2022-12-20T10:56:46.584Z,20.6
2022-12-20T10:57:48.918Z,20.6
2022-12-20T10:58:51.487Z,20.6
2022-12-20T10:59:54.086Z,20.6
2022-12-20T11:00:56.713Z,20.6
2022-12-20T11:01:59.324Z,20.6
2022-12-20T11:03:02.715Z,20.6
2022-12-20T11:04:06.570Z,20.6
2022-12-20T11:05:09.194Z,20.6
2022-12-20T11:06:11.764Z,20.6
2022-12-20T11:07:14.034Z,20.6
2022-12-20T11:09:21.536Z,20.6
2022-12-20T11:10:23.769Z,20.6
2022-12-20T11:11:26.333Z,20.6
2022-12-20T11:12:29.196Z,20.6
2022-12-20T11:13:31.492Z,20.6
2022-12-20T11:15:39.050Z,20.6
2022-12-20T11:16:42.035Z,20.6
2022-12-20T11:17:44.846Z,20.6
2022-12-20T11:18:47.445Z,20.6
2022-12-20T11:19:49.439Z,20.6
2022-12-20T11:20:51.669Z,20.6
2022-12-20T11:21:53.931Z,20.6
2022-12-20T11:22:56.178Z,20.6
2022-12-20T11:23:58.460Z,20.6
2022-12-20T11:25:01.020Z,20.6
2022-12-20T11:26:03.241Z,20.6
2022-12-20T11:28:11.244Z,20.6
2022-12-20T11:29:13.699Z,20.6
2022-12-20T11:30:16.284Z,20.6
2022-12-20T11:31:19.052Z,20.6
2022-12-20T11:32:21.485Z,20.6
2022-12-20T11:33:24.014Z,20.6
2022-12-20T11:34:26.289Z,20.6
2022-12-20T11:35:28.565Z,20.6
2022-12-20T11:36:31.103Z,20.6
2022-12-20T11:37:33.407Z,20.6
2022-12-20T11:38:35.665Z,20.6
2022-12-20T11:39:37.960Z,20.6
2022-12-20T11:40:40.302Z,20.6
2022-12-20T11:41:42.828Z,20.6
2022-12-20T11:42:46.209Z,20.6
2022-12-20T11:45:58.464Z,20.6
2022-12-20T11:47:01.385Z,20.6
2022-12-20T11:48:04.145Z,20.6
2022-12-20T11:49:06.655Z,20.6
2022-12-20T11:50:09.168Z,20.6
2022-12-20T11:52:16.159Z,20.6
2022-12-20T11:53:18.683Z,20.6
2022-12-20T11:54:20.390Z,20.6
2022-12-20T11:55:22.927Z,20.6
2022-12-20T11:56:25.514Z,20.6
2022-12-20T11:57:27.744Z,20.6
2022-12-20T11:58:30.578Z,20.6
2022-12-20T11:59:33.116Z,20.6
2022-12-20T12:00:35.408Z,20.6
2022-12-20T12:01:38.699Z,20.6
2022-12-20T12:02:41.968Z,20.6
2022-12-20T12:03:44.900Z,20.6
2022-12-20T12:04:47.615Z,20.6
2022-12-20T12:05:50.303Z,20.6
2022-12-20T12:06:52.915Z,20.6
2022-12-20T12:07:54.881Z,20.6
2022-12-20T12:08:57.122Z,20.6
2022-12-20T12:09:59.146Z,20.6
2022-12-20T12:11:01.740Z,20.6
2022-12-20T12:13:08.958Z,20.6
2022-12-20T12:14:11.243Z,20.6
2022-12-20T12:16:18.738Z,20.6
2022-12-20T12:17:21.453Z,20.6
2022-12-20T12:18:24.010Z,20.6
2022-12-20T12:19:26.343Z,20.6
2022-12-20T12:20:28.588Z,20.6
2022-12-20T12:21:31.097Z,20.6
2022-12-20T12:22:33.627Z,20.6
2022-12-20T12:23:35.312Z,20.6
2022-12-20T12:24:37.668Z,20.6
2022-12-20T12:25:41.977Z,20.6
2022-12-20T12:26:44.521Z,20.6
2022-12-20T12:27:47.114Z,20.6
2022-12-20T12:28:49.115Z,20.6
2022-12-20T12:29:51.611Z,20.6
2022-12-20T12:30:53.925Z,20.6
2022-12-20T12:31:56.508Z,20.6
2022-12-20T12:32:58.755Z,20.6
2022-12-20T12:34:01.354Z,20.6
2022-12-20T12:35:03.927Z,20.6
2022-12-20T12:36:05.912Z,20.6
2022-12-20T12:37:08.190Z,20.6
2022-12-20T12:38:10.772Z,20.6
2022-12-20T12:39:12.761Z,20.6
2022-12-20T12:40:15.104Z,20.6
2022-12-20T12:41:17.513Z,20.6
2022-12-20T12:42:20.029Z,20.6
2022-12-20T12:43:24.194Z,20.6
2022-12-20T12:44:26.794Z,20.6
2022-12-20T12:45:29.959Z,20.6
2022-12-20T12:46:32.367Z,20.6
2022-12-20T12:47:34.608Z,20.6
2022-12-20T12:48:36.946Z,20.6
2022-12-20T12:49:39.501Z,20.6
2022-12-20T12:50:42.025Z,20.6
2022-12-20T12:51:43.720Z,20.6
2022-12-20T12:52:46.010Z,20.6
2022-12-20T12:53:47.976Z,20.6
2022-12-20T12:54:50.488Z,20.6
2022-12-20T12:56:59.827Z,20.6
2022-12-20T12:58:02.126Z,20.6
2022-12-20T12:59:04.662Z,20.6
2022-12-20T13:00:06.725Z,20.6
2022-12-20T13:01:09.497Z,20.6
2022-12-20T13:02:12.672Z,20.6
2022-12-20T13:03:16.300Z,20.6
2022-12-20T13:04:18.714Z,20.6
2022-12-20T13:06:26.048Z,20.6
2022-12-20T13:07:28.314Z,20.6
2022-12-20T13:08:30.526Z,20.6
2022-12-20T13:09:33.079Z,20.6
2022-12-20T13:10:35.642Z,20.6
2022-12-20T13:12:43.961Z,20.6
2022-12-20T13:13:46.498Z,20.6
2022-12-20T13:14:48.791Z,20.6
2022-12-20T13:15:51.449Z,20.6
2022-12-20T13:17:59.420Z,20.6
2022-12-20T13:19:01.765Z,20.6
2022-12-20T13:20:04.125Z,20.6
2022-12-20T13:21:06.518Z,20.6
2022-12-20T13:22:08.919Z,20.6
2022-12-20T13:23:11.334Z,20.6
2022-12-20T13:24:13.971Z,20.6
2022-12-20T13:25:15.633Z,20.6
2022-12-20T13:26:18.153Z,20.6
2022-12-20T13:27:20.691Z,20.6
2022-12-20T13:28:23.263Z,20.6
2022-12-20T13:29:26.407Z,20.6
2022-12-20T13:30:29.372Z,20.6
2022-12-20T13:31:32.442Z,20.6
2022-12-20T13:32:35.396Z,20.6
2022-12-20T13:33:37.664Z,20.6
2022-12-20T13:34:39.656Z,20.6
2022-12-20T13:35:41.682Z,20.6
2022-12-20T13:36:44.307Z,20.6
2022-12-20T13:38:51.854Z,20.6
2022-12-20T13:39:54.460Z,20.6
2022-12-20T13:40:56.726Z,20.6
2022-12-20T13:41:59.338Z,20.6
2022-12-20T13:43:01.921Z,20.6
2022-12-20T13:44:03.939Z,20.6
2022-12-20T13:45:06.464Z,20.6
2022-12-20T13:46:08.674Z,20.6
2022-12-20T13:47:11.499Z,20.6
2022-12-20T13:48:14.069Z,20.6
2022-12-20T13:49:16.090Z,20.6
2022-12-20T13:50:18.341Z,20.6
2022-12-20T13:51:20.392Z,20.6
2022-12-20T13:52:23.049Z,20.7
2022-12-20T13:53:25.301Z,20.6
2022-12-20T13:54:28.772Z,20.6
2022-12-20T13:55:31.019Z,20.6
2022-12-20T13:56:33.563Z,20.6
2022-12-20T13:57:36.165Z,20.7
2022-12-20T13:58:38.707Z,20.6
2022-12-20T13:59:40.975Z,20.7
2022-12-20T14:00:43.604Z,20.6
2022-12-20T14:01:46.673Z,20.6
2022-12-20T14:02:50.249Z,20.7
2022-12-20T14:03:53.359Z,20.6
2022-12-20T14:04:56.797Z,20.6
2022-12-20T14:05:59.070Z,20.6
2022-12-20T14:07:01.486Z,20.6
2022-12-20T14:08:03.813Z,20.6
2022-12-20T14:09:06.119Z,20.6
2022-12-20T14:10:08.142Z,20.6
2022-12-20T14:11:10.426Z,20.6
2022-12-20T14:12:12.505Z,20.6
2022-12-20T14:13:18.968Z,20.6
2022-12-20T14:14:21.537Z,20.6
2022-12-20T14:15:23.589Z,20.6
2022-12-20T14:16:26.425Z,20.6
2022-12-20T14:17:28.946Z,20.6
2022-12-20T14:18:30.952Z,20.6
2022-12-20T14:19:32.992Z,20.6
2022-12-20T14:20:35.027Z,20.6
2022-12-20T14:21:37.052Z,20.6
2022-12-20T14:22:39.665Z,20.6
2022-12-20T14:23:42.385Z,20.6
2022-12-20T14:24:44.382Z,20.6
2022-12-20T14:25:46.908Z,20.6
2022-12-20T14:26:49.459Z,20.6
2022-12-20T14:27:51.441Z,20.6
2022-12-20T14:28:53.684Z,20.6
2022-12-20T14:29:56.241Z,20.6
2022-12-20T14:31:13.345Z,20.6
2022-12-20T14:32:15.625Z,20.6
2022-12-20T14:33:17.902Z,20.6
2022-12-20T14:34:25.902Z,20.6
2022-12-20T14:35:27.600Z,20.6
2022-12-20T14:36:29.861Z,20.6
2022-12-20T14:37:32.194Z,20.6
2022-12-20T14:38:34.561Z,20.6
2022-12-20T14:39:37.183Z,20.6
2022-12-20T14:40:39.707Z,20.6